Time;durP1;ratioP1;P1;durP2;ratioP2;P2;SDS_P1;SDS_P2;PMS_P1;PMS_P2;Temp;Humidity;BMP_temperature;BMP_pressure;BME280_temperature;BME280_humidity;BME280_pressure;Samples;Min_cycle;Max_cycle;Signal;HPM_P1;HPM_P2
2022/10/18 00:01:35;;;;;;;8.20;4.43;;;;;;;;;;4937772;28;20035;-79
2022/10/18 00:04:01;;;;;;;7.47;4.60;;;;;;;;;;4932011;28;20516;-79
2022/10/18 00:06:26;;;;;;;7.20;4.45;;;;;;;;;;4959326;28;20043;-81
2022/10/18 00:09:12;;;;;;;8.20;4.05;;;;;;;;;;4911622;28;20040;-80
2022/10/18 00:11:37;;;;;;;7.13;4.80;;;;;;;;;;4897193;29;20063;-79
2022/10/18 00:14:03;;;;;;;8.73;4.88;;;;;;;;;;4892937;29;20084;-80
2022/10/18 00:16:29;;;;;;;6.93;4.63;;;;;;;;;;4910810;29;20036;-79
2022/10/18 00:18:54;;;;;;;7.82;4.78;;;;;;;;;;4912929;29;20157;-80
2022/10/18 00:21:22;;;;;;;7.93;4.78;;;;;;;;;;4909912;29;20055;-80
2022/10/18 00:23:48;;;;;;;8.25;5.00;;;;;;;;;;4916354;29;20412;-80
2022/10/18 00:26:19;;;;;;;8.68;4.82;;;;;;;;;;4883982;29;20557;-79
2022/10/18 00:28:46;;;;;;;6.78;4.45;;;;;;;;;;4891319;29;20027;-80
2022/10/18 00:31:31;;;;;;;9.13;4.53;;;;;;;;;;4901147;29;20087;-80
2022/10/18 00:34:03;;;;;;;7.55;4.38;;;;;;;;;;4920013;29;20039;-80
2022/10/18 00:36:30;;;;;;;7.32;4.20;;;;;;;;;;4906434;29;20631;-79
2022/10/18 00:38:56;;;;;;;8.45;4.40;;;;;;;;;;4894862;29;20067;-80
2022/10/18 00:41:29;;;;;;;7.68;4.40;;;;;;;;;;4906959;29;20441;-79
2022/10/18 00:44:26;;;;;;;8.93;4.10;;;;;;;;;;4904630;29;20091;-79
2022/10/18 00:46:55;;;;;;;7.05;4.32;;;;;;;;;;4915036;29;20040;-80
2022/10/18 00:49:25;;;;;;;6.63;4.22;;;;;;;;;;4921853;28;20040;-79
2022/10/18 00:52:08;;;;;;;7.45;4.15;;;;;;;;;;4943159;28;20044;-79
2022/10/18 00:54:36;;;;;;;7.05;4.50;;;;;;;;;;4953802;28;20039;-79
2022/10/18 00:57:02;;;;;;;8.02;4.68;;;;;;;;;;4946706;28;20058;-80
2022/10/18 00:59:28;;;;;;;6.68;4.00;;;;;;;;;;4925452;28;20064;-81
2022/10/18 01:01:53;;;;;;;7.97;4.60;;;;;;;;;;4929774;28;20055;-80
2022/10/18 01:04:20;;;;;;;7.00;4.47;;;;;;;;;;4927040;28;20052;-79
2022/10/18 01:07:10;;;;;;;6.70;4.30;;;;;;;;;;4922997;28;20039;-80
2022/10/18 01:09:47;;;;;;;7.80;4.13;;;;;;;;;;4935239;28;20054;-79
2022/10/18 01:12:24;;;;;;;5.95;3.95;;;;;;;;;;4941552;28;20115;-79
2022/10/18 01:15:05;;;;;;;;;;;;;;;;;;4938386;28;20396;-79
2022/10/18 01:18:04;;;;;;;6.20;3.90;;;;;;;;;;4936272;28;19922;-79
2022/10/18 01:20:46;;;;;;;6.63;4.25;;;;;;;;;;4931230;28;20654;-79
2022/10/18 01:23:34;;;;;;;7.25;4.45;;;;;;;;;;4959464;28;20122;-79
2022/10/18 01:26:23;;;;;;;7.10;4.57;;;;;;;;;;4951651;28;20036;-79
2022/10/18 01:29:29;;;;;;;7.90;4.30;;;;;;;;;;4929834;28;20035;-80
2022/10/18 01:32:02;;;;;;;5.80;3.87;;;;;;;;;;4932145;28;20073;-80
2022/10/18 01:34:32;;;;;;;6.63;4.20;;;;;;;;;;4936326;28;20101;-81
2022/10/18 01:36:59;;;;;;;8.27;4.28;;;;;;;;;;4932267;28;20038;-79
2022/10/18 01:39:27;;;;;;;8.23;4.10;;;;;;;;;;4925822;28;20043;-79
2022/10/18 01:41:54;;;;;;;7.32;4.63;;;;;;;;;;4931884;28;20035;-80
2022/10/18 01:44:24;;;;;;;7.50;4.35;;;;;;;;;;4946870;28;20047;-80
2022/10/18 01:46:52;;;;;;;8.93;4.60;;;;;;;;;;4932405;28;20503;-80
2022/10/18 01:49:17;;;;;;;8.45;4.50;;;;;;;;;;4932805;28;20036;-80
2022/10/18 01:51:43;;;;;;;6.88;4.35;;;;;;;;;;4935615;28;20447;-79
2022/10/18 01:54:09;;;;;;;8.10;4.55;;;;;;;;;;4934836;28;20039;-79
2022/10/18 01:56:50;;;;;;;7.28;4.20;;;;;;;;;;4931820;28;20074;-81
2022/10/18 01:59:34;;;;;;;7.53;4.18;;;;;;;;;;4942069;28;20035;-80
2022/10/18 02:02:06;;;;;;;6.95;4.25;;;;;;;;;;4938790;28;20507;-79
2022/10/18 02:04:48;;;;;;;8.85;4.80;;;;;;;;;;4938244;28;20130;-80
2022/10/18 02:07:13;;;;;;;9.88;4.60;;;;;;;;;;4955753;28;20164;-80
2022/10/18 02:09:42;;;;;;;6.45;4.20;;;;;;;;;;4943237;28;20492;-80
2022/10/18 02:12:09;;;;;;;8.02;4.60;;;;;;;;;;4954927;28;20135;-80
2022/10/18 02:14:35;;;;;;;7.18;4.40;;;;;;;;;;4933734;28;20046;-80
2022/10/18 02:17:07;;;;;;;7.68;4.40;;;;;;;;;;4932344;28;20031;-80
2022/10/18 02:19:40;;;;;;;8.23;3.85;;;;;;;;;;4933236;28;20038;-80
2022/10/18 02:22:07;;;;;;;7.72;4.78;;;;;;;;;;4928041;28;20102;-80
2022/10/18 02:24:43;;;;;;;;;;;;;;;;;;4923244;28;20048;-85
2022/10/18 02:27:09;;;;;;;8.02;4.82;;;;;;;;;;4933456;28;20014;-83
2022/10/18 02:29:35;;;;;;;8.10;4.13;;;;;;;;;;4927925;28;20123;-83
2022/10/18 02:32:15;;;;;;;8.02;5.00;;;;;;;;;;4959203;28;20039;-81
2022/10/18 02:34:45;;;;;;;7.00;4.43;;;;;;;;;;4931940;28;20055;-80
2022/10/18 02:37:12;;;;;;;7.72;4.75;;;;;;;;;;4955079;28;20086;-82
2022/10/18 02:39:46;;;;;;;8.45;4.90;;;;;;;;;;4933775;28;20179;-81
2022/10/18 02:42:13;;;;;;;8.18;4.90;;;;;;;;;;4942356;28;20035;-81
2022/10/18 02:44:39;;;;;;;8.73;5.13;;;;;;;;;;4941478;28;20027;-82
2022/10/18 02:47:06;;;;;;;8.43;5.07;;;;;;;;;;4939450;28;20391;-83
2022/10/18 02:49:33;;;;;;;7.70;5.15;;;;;;;;;;4959187;28;20040;-82
2022/10/18 02:51:58;;;;;;;7.82;4.85;;;;;;;;;;4944931;28;20134;-82
2022/10/18 02:54:24;;;;;;;8.55;4.90;;;;;;;;;;4939232;28;20546;-83
2022/10/18 02:56:50;;;;;;;7.53;5.72;;;;;;;;;;4921096;28;20484;-82
2022/10/18 02:59:15;;;;;;;9.80;5.50;;;;;;;;;;4927713;28;20043;-82
2022/10/18 03:01:40;;;;;;;8.50;5.30;;;;;;;;;;4937733;28;20043;-82
2022/10/18 03:04:06;;;;;;;7.80;5.07;;;;;;;;;;4937508;28;20039;-84
2022/10/18 03:06:32;;;;;;;7.80;5.15;;;;;;;;;;4941779;28;20051;-83
2022/10/18 03:08:58;;;;;;;8.48;5.38;;;;;;;;;;4944081;28;20039;-83
2022/10/18 03:11:27;;;;;;;9.32;4.95;;;;;;;;;;4930864;28;20043;-82
2022/10/18 03:13:53;;;;;;;7.90;5.63;;;;;;;;;;4930645;28;20039;-84
2022/10/18 03:16:18;;;;;;;7.38;5.10;;;;;;;;;;4926069;28;20046;-85
2022/10/18 03:18:43;;;;;;;7.93;5.40;;;;;;;;;;4958272;28;20035;-86
2022/10/18 03:21:09;;;;;;;8.68;5.85;;;;;;;;;;4920870;28;20028;-85
2022/10/18 03:23:34;;;;;;;9.02;6.18;;;;;;;;;;4956272;28;20462;-85
2022/10/18 03:26:00;;;;;;;8.05;6.00;;;;;;;;;;4936700;28;20556;-82
2022/10/18 03:28:25;;;;;;;9.77;6.53;;;;;;;;;;4928322;28;20047;-83
2022/10/18 03:30:50;;;;;;;9.65;6.00;;;;;;;;;;4928210;28;20074;-83
2022/10/18 03:33:16;;;;;;;9.02;6.32;;;;;;;;;;4961024;28;20031;-83
2022/10/18 03:35:41;;;;;;;10.27;6.03;;;;;;;;;;4936015;28;20448;-85
2022/10/18 03:38:07;;;;;;;8.90;5.97;;;;;;;;;;4926366;28;20486;-85
2022/10/18 03:40:35;;;;;;;9.23;6.43;;;;;;;;;;4950642;28;20055;-85
2022/10/18 03:43:01;;;;;;;10.55;6.97;;;;;;;;;;4937927;28;20043;-85
2022/10/18 03:45:26;;;;;;;9.35;5.85;;;;;;;;;;4918916;28;20102;-86
2022/10/18 03:47:54;;;;;;;9.07;6.20;;;;;;;;;;4927237;28;20039;-86
2022/10/18 03:50:19;;;;;;;;;;;;;;;;;;4919505;28;20035;-85
2022/10/18 03:52:44;;;;;;;9.53;5.90;;;;;;;;;;4927287;28;20315;-85
2022/10/18 03:55:12;;;;;;;9.30;6.10;;;;;;;;;;4950787;28;20638;-85
2022/10/18 03:57:37;;;;;;;;;;;;;;;;;;4922908;28;20126;-85
2022/10/18 04:00:03;;;;;;;10.52;6.10;;;;;;;;;;4926532;28;20005;-87
2022/10/18 04:02:28;;;;;;;9.32;5.90;;;;;;;;;;4926737;28;20043;-81
2022/10/18 04:04:54;;;;;;;10.20;6.05;;;;;;;;;;4922082;28;20103;-82
2022/10/18 04:07:19;;;;;;;7.97;5.60;;;;;;;;;;4927205;28;20035;-82
2022/10/18 04:09:44;;;;;;;8.35;5.72;;;;;;;;;;4928804;28;20042;-83
2022/10/18 04:12:09;;;;;;;8.73;5.50;;;;;;;;;;4921612;28;20050;-83
2022/10/18 04:14:35;;;;;;;9.45;6.28;;;;;;;;;;4957461;28;20131;-84
2022/10/18 04:17:00;;;;;;;9.93;5.95;;;;;;;;;;4947330;28;20118;-83
2022/10/18 04:19:26;;;;;;;8.52;6.10;;;;;;;;;;4927351;28;20036;-83
2022/10/18 04:21:54;;;;;;;10.27;6.18;;;;;;;;;;4921349;28;20031;-83
2022/10/18 04:24:20;;;;;;;11.80;6.57;;;;;;;;;;4922176;28;20046;-83
2022/10/18 04:26:45;;;;;;;8.90;5.70;;;;;;;;;;4936045;28;20043;-83
2022/10/18 04:29:10;;;;;;;9.50;6.45;;;;;;;;;;4921559;28;20479;-83
2022/10/18 04:31:36;;;;;;;9.35;6.18;;;;;;;;;;4934563;28;20403;-82
2022/10/18 04:34:03;;;;;;;8.63;5.80;;;;;;;;;;4921321;28;20318;-83
2022/10/18 04:36:28;;;;;;;9.55;6.07;;;;;;;;;;4938020;28;20511;-83
2022/10/18 04:38:53;;;;;;;10.15;6.10;;;;;;;;;;4944439;28;20098;-83
2022/10/18 04:41:19;;;;;;;9.52;6.55;;;;;;;;;;4927834;28;20522;-83
2022/10/18 04:43:44;;;;;;;9.95;6.03;;;;;;;;;;4937787;28;20032;-84
2022/10/18 04:46:10;;;;;;;10.70;6.60;;;;;;;;;;4948004;28;20053;-83
2022/10/18 04:48:35;;;;;;;10.30;6.82;;;;;;;;;;4938772;28;20607;-83
2022/10/18 04:51:00;;;;;;;9.90;6.30;;;;;;;;;;4966429;28;20043;-83
2022/10/18 04:53:26;;;;;;;8.43;5.72;;;;;;;;;;4936970;28;20907;-82
2022/10/18 04:55:51;;;;;;;9.30;6.13;;;;;;;;;;4935947;28;20175;-83
2022/10/18 04:58:17;;;;;;;11.73;6.53;;;;;;;;;;4919384;28;20050;-83
2022/10/18 05:00:43;;;;;;;9.70;5.90;;;;;;;;;;4964911;28;20035;-83
2022/10/18 05:03:09;;;;;;;11.05;7.30;;;;;;;;;;4920514;28;20403;-83
2022/10/18 05:05:35;;;;;;;9.55;6.55;;;;;;;;;;4964927;28;20036;-83
2022/10/18 05:08:00;;;;;;;9.80;6.72;;;;;;;;;;4919817;28;20039;-84
2022/10/18 05:10:26;;;;;;;11.68;6.25;;;;;;;;;;4920499;28;20047;-84
2022/10/18 05:12:54;;;;;;;8.77;6.05;;;;;;;;;;4926914;28;20407;-89
2022/10/18 05:15:19;;;;;;;8.73;6.07;;;;;;;;;;4931786;28;20039;-87
2022/10/18 05:17:44;;;;;;;11.43;6.70;;;;;;;;;;4953908;28;20059;-90
2022/10/18 05:20:10;;;;;;;12.23;7.00;;;;;;;;;;4930793;28;20036;-89
2022/10/18 05:22:35;;;;;;;10.05;6.28;;;;;;;;;;4971916;28;20150;-89
2022/10/18 05:25:01;;;;;;;10.65;6.32;;;;;;;;;;4926870;28;20039;-89
2022/10/18 05:27:27;;;;;;;12.82;7.50;;;;;;;;;;4936796;28;20058;-89
2022/10/18 05:29:52;;;;;;;10.10;6.65;;;;;;;;;;4947163;28;20384;-84
2022/10/18 05:32:18;;;;;;;10.13;6.97;;;;;;;;;;4924486;28;20047;-82
2022/10/18 05:34:43;;;;;;;11.75;6.63;;;;;;;;;;4934226;28;20090;-89
2022/10/18 05:37:08;;;;;;;10.18;6.40;;;;;;;;;;4943490;28;20047;-82
2022/10/18 05:39:34;;;;;;;9.43;6.00;;;;;;;;;;4926109;28;20043;-83
2022/10/18 05:41:59;;;;;;;12.32;6.97;;;;;;;;;;4952915;28;20047;-83
2022/10/18 05:44:24;;;;;;;11.15;6.53;;;;;;;;;;4925689;28;20046;-83
2022/10/18 05:46:50;;;;;;;11.60;7.28;;;;;;;;;;4937931;28;20135;-83
2022/10/18 05:49:15;;;;;;;10.82;6.75;;;;;;;;;;4926870;28;20547;-83
2022/10/18 05:51:41;;;;;;;10.52;7.10;;;;;;;;;;4930440;28;20417;-84
2022/10/18 05:54:06;;;;;;;13.18;7.40;;;;;;;;;;4923474;28;20387;-83
2022/10/18 05:56:31;;;;;;;11.23;7.22;;;;;;;;;;4953040;28;20035;-83
2022/10/18 05:58:57;;;;;;;12.02;7.18;;;;;;;;;;4921156;28;20066;-84
2022/10/18 06:01:22;;;;;;;10.15;6.88;;;;;;;;;;4936827;28;20094;-82
2022/10/18 06:03:47;;;;;;;10.68;6.85;;;;;;;;;;4922287;28;20036;-82
2022/10/18 06:06:13;;;;;;;10.35;6.82;;;;;;;;;;4929237;28;20150;-83
2022/10/18 06:08:40;;;;;;;11.27;6.70;;;;;;;;;;4929550;28;20036;-82
2022/10/18 06:11:10;;;;;;;10.68;6.90;;;;;;;;;;4928638;28;20075;-82
2022/10/18 06:13:43;;;;;;;11.60;7.22;;;;;;;;;;4928243;28;20040;-82
2022/10/18 06:16:08;;;;;;;10.75;7.35;;;;;;;;;;4937042;28;20047;-82
2022/10/18 06:18:34;;;;;;;8.98;6.32;;;;;;;;;;4920271;28;20881;-83
2022/10/18 06:20:59;;;;;;;10.55;6.85;;;;;;;;;;4929327;28;20201;-82
2022/10/18 06:23:26;;;;;;;11.63;7.45;;;;;;;;;;4926048;28;20049;-83
2022/10/18 06:25:57;;;;;;;11.68;6.90;;;;;;;;;;4920378;28;20534;-84
2022/10/18 06:28:23;;;;;;;12.27;6.40;;;;;;;;;;4929310;28;20491;-83
2022/10/18 06:30:48;;;;;;;14.15;7.60;;;;;;;;;;4926145;28;20091;-82
2022/10/18 06:33:13;;;;;;;11.43;7.00;;;;;;;;;;4941467;28;20503;-82
2022/10/18 06:35:39;;;;;;;10.90;6.88;;;;;;;;;;4934666;28;20039;-82
2022/10/18 06:38:05;;;;;;;12.20;7.13;;;;;;;;;;4929883;28;20106;-82
2022/10/18 06:40:36;;;;;;;11.13;6.97;;;;;;;;;;4923301;28;20423;-82
2022/10/18 06:43:05;;;;;;;12.80;7.15;;;;;;;;;;4939289;28;20043;-82
2022/10/18 06:45:30;;;;;;;10.55;6.90;;;;;;;;;;4935271;28;20035;-83
2022/10/18 06:47:57;;;;;;;9.90;6.70;;;;;;;;;;4928601;28;20586;-83
2022/10/18 06:50:22;;;;;;;10.60;7.05;;;;;;;;;;4933881;28;20075;-83
2022/10/18 06:52:50;;;;;;;11.98;7.70;;;;;;;;;;4941032;28;20452;-81
2022/10/18 06:55:15;;;;;;;12.00;7.10;;;;;;;;;;4923410;28;20032;-84
2022/10/18 06:57:41;;;;;;;10.40;6.63;;;;;;;;;;4939159;28;20039;-82
2022/10/18 07:00:07;;;;;;;11.85;7.40;;;;;;;;;;4929499;28;20040;-81
2022/10/18 07:02:32;;;;;;;12.25;7.07;;;;;;;;;;4934605;28;20040;-81
2022/10/18 07:04:57;;;;;;;12.48;6.97;;;;;;;;;;4961310;28;20486;-83
2022/10/18 07:07:23;;;;;;;10.98;7.00;;;;;;;;;;4935088;28;20035;-82
2022/10/18 07:09:48;;;;;;;11.73;6.90;;;;;;;;;;4934989;28;20486;-81
2022/10/18 07:12:16;;;;;;;12.48;7.10;;;;;;;;;;4924802;28;20047;-84
2022/10/18 07:14:42;;;;;;;12.07;7.35;;;;;;;;;;4929752;28;20086;-84
2022/10/18 07:17:07;;;;;;;11.27;7.28;;;;;;;;;;4908552;28;20463;-84
2022/10/18 07:19:32;;;;;;;10.38;6.97;;;;;;;;;;4921173;28;20040;-83
2022/10/18 07:21:58;;;;;;;13.38;7.35;;;;;;;;;;4937108;28;20098;-83
2022/10/18 07:24:23;;;;;;;11.32;7.47;;;;;;;;;;4926262;28;20123;-83
2022/10/18 07:26:49;;;;;;;12.52;7.43;;;;;;;;;;4936351;28;20094;-83
2022/10/18 07:29:14;;;;;;;11.88;7.57;;;;;;;;;;4921229;28;20043;-82
2022/10/18 07:31:39;;;;;;;11.38;7.47;;;;;;;;;;4928507;28;20131;-83
2022/10/18 07:34:06;;;;;;;10.05;6.95;;;;;;;;;;4928504;28;20578;-83
2022/10/18 07:36:31;;;;;;;15.43;7.63;;;;;;;;;;4956370;28;20126;-82
2022/10/18 07:39:04;;;;;;;11.43;7.63;;;;;;;;;;4929201;28;20487;-82
2022/10/18 07:41:32;;;;;;;9.32;6.88;;;;;;;;;;4955556;28;20039;-82
2022/10/18 07:43:57;;;;;;;10.63;6.78;;;;;;;;;;4935289;28;20114;-83
2022/10/18 07:46:23;;;;;;;10.93;7.13;;;;;;;;;;4939797;28;20566;-82
2022/10/18 07:48:49;;;;;;;14.18;7.60;;;;;;;;;;4928780;28;20040;-83
2022/10/18 07:51:15;;;;;;;10.27;6.78;;;;;;;;;;4938087;28;20527;-82
2022/10/18 07:53:41;;;;;;;12.27;7.20;;;;;;;;;;4948310;28;20041;-81
2022/10/18 07:56:14;;;;;;;13.70;7.07;;;;;;;;;;4930162;28;20046;-82
2022/10/18 07:58:40;;;;;;;12.00;6.97;;;;;;;;;;4955859;28;20035;-81
2022/10/18 08:01:07;;;;;;;10.73;6.60;;;;;;;;;;4923772;28;20038;-83
2022/10/18 08:03:33;;;;;;;12.95;6.65;;;;;;;;;;4936460;28;20043;-83
2022/10/18 08:05:58;;;;;;;9.90;6.68;;;;;;;;;;4935520;28;20448;-82
2022/10/18 08:08:24;;;;;;;10.32;6.50;;;;;;;;;;4921682;28;20058;-82
2022/10/18 08:10:50;;;;;;;10.98;6.78;;;;;;;;;;4938688;28;20081;-82
2022/10/18 08:13:15;;;;;;;12.07;6.68;;;;;;;;;;4936087;28;20038;-82
2022/10/18 08:15:41;;;;;;;10.25;6.38;;;;;;;;;;4967134;28;20039;-82
2022/10/18 08:18:06;;;;;;;10.43;6.30;;;;;;;;;;4929225;28;20062;-81
2022/10/18 08:20:32;;;;;;;11.85;6.72;;;;;;;;;;4927233;28;20387;-82
2022/10/18 08:22:58;;;;;;;11.63;7.15;;;;;;;;;;4953723;28;20035;-82
2022/10/18 08:25:26;;;;;;;15.60;7.60;;;;;;;;;;4925162;28;20082;-82
2022/10/18 08:27:52;;;;;;;11.20;6.72;;;;;;;;;;4927071;28;20042;-83
2022/10/18 08:30:17;;;;;;;11.10;7.03;;;;;;;;;;4958801;28;20407;-80
2022/10/18 08:32:43;;;;;;;11.98;7.57;;;;;;;;;;4922617;28;20134;-82
2022/10/18 08:35:08;;;;;;;14.95;7.93;;;;;;;;;;4938558;28;20034;-82
2022/10/18 08:37:33;;;;;;;12.30;7.25;;;;;;;;;;4920782;28;20569;-82
2022/10/18 08:39:59;;;;;;;14.60;7.93;;;;;;;;;;4927767;28;20032;-82
2022/10/18 08:42:49;;;;;;;15.65;7.60;;;;;;;;;;4934766;28;20039;-82
2022/10/18 08:45:15;;;;;;;14.18;7.90;;;;;;;;;;4949277;28;20623;-82
2022/10/18 08:47:42;;;;;;;16.15;8.57;;;;;;;;;;4920948;28;20142;-83
2022/10/18 08:50:35;;;;;;;12.93;7.68;;;;;;;;;;4944422;28;20495;-82
2022/10/18 08:53:19;;;;;;;11.95;8.02;;;;;;;;;;4928256;28;20705;-82
2022/10/18 08:55:49;;;;;;;14.45;8.20;;;;;;;;;;4927486;28;20039;-83
2022/10/18 08:58:19;;;;;;;12.85;8.40;;;;;;;;;;4934492;28;20074;-83
2022/10/18 09:01:03;;;;;;;14.18;8.73;;;;;;;;;;4917871;28;20031;-84
2022/10/18 09:03:43;;;;;;;16.25;9.10;;;;;;;;;;4943393;28;20047;-83
2022/10/18 09:06:36;;;;;;;13.73;9.05;;;;;;;;;;4965322;28;20052;-84
2022/10/18 09:09:19;;;;;;;16.05;9.70;;;;;;;;;;4936999;28;20043;-84
2022/10/18 09:11:53;;;;;;;13.80;8.70;;;;;;;;;;4935905;28;20070;-83
2022/10/18 09:14:40;;;;;;;14.48;8.65;;;;;;;;;;4942484;28;20044;-82
2022/10/18 09:17:20;;;;;;;12.43;7.28;;;;;;;;;;4941253;28;20035;-82
2022/10/18 09:20:20;;;;;;;12.98;7.63;;;;;;;;;;4936430;28;20546;-84
2022/10/18 09:22:55;;;;;;;12.57;7.20;;;;;;;;;;4927749;28;20027;-82
2022/10/18 09:25:23;;;;;;;13.55;7.40;;;;;;;;;;4925437;28;20075;-82
2022/10/18 09:28:00;;;;;;;13.18;7.88;;;;;;;;;;4934303;28;20047;-82
2022/10/18 09:30:32;;;;;;;13.43;7.65;;;;;;;;;;4943153;28;20050;-83
2022/10/18 09:33:06;;;;;;;11.55;7.53;;;;;;;;;;4939056;28;20035;-83
2022/10/18 09:35:46;;;;;;;13.35;6.88;;;;;;;;;;4958542;28;20039;-83
2022/10/18 09:38:15;;;;;;;13.00;7.10;;;;;;;;;;4927509;28;20447;-82
2022/10/18 09:41:01;;;;;;;11.10;6.97;;;;;;;;;;4918588;28;20629;-82
2022/10/18 09:43:39;;;;;;;10.15;6.40;;;;;;;;;;4934273;28;20043;-82
2022/10/18 09:46:05;;;;;;;10.52;5.90;;;;;;;;;;4967465;28;20459;-83
2022/10/18 09:48:40;;;;;;;11.93;6.78;;;;;;;;;;4919858;28;20062;-84
2022/10/18 09:51:20;;;;;;;12.77;7.10;;;;;;;;;;4942716;28;20125;-83
2022/10/18 09:54:00;;;;;;;11.77;6.47;;;;;;;;;;4927527;28;20554;-83
2022/10/18 09:56:30;;;;;;;10.90;6.45;;;;;;;;;;4942436;28;20043;-81
2022/10/18 09:58:55;;;;;;;10.95;6.10;;;;;;;;;;4967965;28;20040;-81
2022/10/18 10:01:24;;;;;;;11.32;6.05;;;;;;;;;;4937756;28;20495;-82
2022/10/18 10:03:49;;;;;;;10.35;5.70;;;;;;;;;;4931322;28;20058;-82
2022/10/18 10:06:17;;;;;;;9.02;5.78;;;;;;;;;;4937706;28;20040;-82
2022/10/18 10:08:46;;;;;;;10.52;6.00;;;;;;;;;;4970422;28;20684;-82
2022/10/18 10:11:31;;;;;;;9.15;5.60;;;;;;;;;;4933304;28;20039;-82
2022/10/18 10:14:07;;;;;;;9.43;6.00;;;;;;;;;;4942564;28;20482;-82
2022/10/18 10:16:32;;;;;;;9.40;6.28;;;;;;;;;;4937021;28;20043;-82
2022/10/18 10:18:57;;;;;;;11.80;6.40;;;;;;;;;;4953471;28;20042;-82
2022/10/18 10:21:23;;;;;;;9.93;6.03;;;;;;;;;;4936392;28;20035;-83
2022/10/18 10:23:51;;;;;;;10.70;6.25;;;;;;;;;;4938898;28;20122;-82
2022/10/18 10:26:32;;;;;;;10.80;5.97;;;;;;;;;;4967980;28;20074;-83
2022/10/18 10:28:58;;;;;;;9.13;6.05;;;;;;;;;;4942572;28;20039;-83
2022/10/18 10:31:23;;;;;;;10.30;6.30;;;;;;;;;;4929495;28;20043;-84
2022/10/18 10:34:04;;;;;;;10.88;6.38;;;;;;;;;;4940144;28;20039;-83
2022/10/18 10:36:31;;;;;;;11.00;6.20;;;;;;;;;;4926585;28;20756;-83
2022/10/18 10:39:06;;;;;;;10.27;6.35;;;;;;;;;;4930258;28;20697;-83
2022/10/18 10:41:32;;;;;;;12.10;6.60;;;;;;;;;;4940547;28;20124;-84
2022/10/18 10:43:57;;;;;;;11.57;6.57;;;;;;;;;;4923098;28;20098;-84
2022/10/18 10:46:25;;;;;;;10.15;6.93;;;;;;;;;;4930943;28;20488;-84
2022/10/18 10:48:55;;;;;;;13.90;6.55;;;;;;;;;;4928159;28;20055;-85
2022/10/18 10:51:35;;;;;;;11.57;7.43;;;;;;;;;;4930179;28;20044;-85
2022/10/18 10:54:02;;;;;;;12.63;6.97;;;;;;;;;;4969243;28;20046;-84
2022/10/18 10:56:33;;;;;;;12.75;7.00;;;;;;;;;;4967811;28;20033;-85
2022/10/18 10:59:13;;;;;;;11.48;6.53;;;;;;;;;;4929968;28;20192;-85
2022/10/18 11:01:38;;;;;;;12.07;6.43;;;;;;;;;;4929778;28;20043;-84
2022/10/18 11:04:24;;;;;;;9.32;6.35;;;;;;;;;;4930557;28;21031;-85
2022/10/18 11:06:57;;;;;;;10.65;6.60;;;;;;;;;;4941049;28;20137;-85
2022/10/18 11:09:32;;;;;;;10.70;6.68;;;;;;;;;;4944220;28;20046;-84
2022/10/18 11:12:19;;;;;;;9.52;6.07;;;;;;;;;;4943942;28;20449;-86
2022/10/18 11:14:49;;;;;;;10.18;6.05;;;;;;;;;;4939507;28;20476;-84
2022/10/18 11:17:37;;;;;;;8.77;5.93;;;;;;;;;;4953586;28;20669;-83
2022/10/18 11:20:14;;;;;;;;;;;;;;;;;;4937531;28;20046;-84
2022/10/18 11:22:39;;;;;;;;;;;;;;;;;;4921352;28;19918;-84
2022/10/18 11:25:05;;;;;;;9.45;6.15;;;;;;;;;;4945273;28;20260;-84
2022/10/18 11:27:43;;;;;;;10.82;6.35;;;;;;;;;;4933676;28;20046;-84
2022/10/18 11:30:36;;;;;;;10.65;6.90;;;;;;;;;;4945460;28;20533;-84
2022/10/18 11:33:01;;;;;;;10.07;6.80;;;;;;;;;;4925976;28;20043;-84
2022/10/18 11:35:34;;;;;;;12.02;6.90;;;;;;;;;;4937731;28;20039;-84
2022/10/18 11:38:22;;;;;;;11.43;7.15;;;;;;;;;;4955747;28;20515;-84
2022/10/18 11:40:54;;;;;;;12.23;7.03;;;;;;;;;;4944877;28;20035;-84
2022/10/18 11:43:41;;;;;;;9.07;6.00;;;;;;;;;;4967246;28;20043;-84
2022/10/18 11:46:26;;;;;;;8.20;5.27;;;;;;;;;;4966744;28;20035;-84
2022/10/18 11:48:52;;;;;;;9.35;4.95;;;;;;;;;;4921178;28;20414;-84
2022/10/18 11:51:30;;;;;;;7.20;4.63;;;;;;;;;;4937292;28;20047;-84
2022/10/18 11:54:22;;;;;;;6.95;4.90;;;;;;;;;;4928357;28;20143;-85
2022/10/18 11:57:11;;;;;;;7.20;4.82;;;;;;;;;;4934691;28;20518;-84
2022/10/18 11:59:58;;;;;;;8.35;5.25;;;;;;;;;;4937054;28;20042;-84
2022/10/18 12:02:23;;;;;;;;;;;;;;;;;;4937701;28;20036;-85
2022/10/18 12:04:53;;;;;;;14.73;5.97;;;;;;;;;;4940252;28;19927;-83
2022/10/18 12:07:20;;;;;;;8.00;5.00;;;;;;;;;;4937176;28;20075;-83
2022/10/18 12:09:47;;;;;;;7.43;4.70;;;;;;;;;;4938033;28;20043;-82
2022/10/18 12:12:25;;;;;;;;;;;;;;;;;;4929126;28;20518;-83
2022/10/18 12:15:15;;;;;;;7.93;4.95;;;;;;;;;;4964585;28;20366;-83
2022/10/18 12:17:46;;;;;;;8.00;4.95;;;;;;;;;;4927569;28;20035;-83
2022/10/18 12:20:38;;;;;;;8.25;5.35;;;;;;;;;;4920108;28;20079;-82
2022/10/18 12:23:16;;;;;;;9.02;5.53;;;;;;;;;;4929515;28;20067;-83
2022/10/18 12:25:46;;;;;;;8.02;5.38;;;;;;;;;;4966932;28;20028;-82
2022/10/18 12:28:29;;;;;;;8.48;5.30;;;;;;;;;;4937818;28;20118;-83
2022/10/18 12:31:26;;;;;;;8.35;5.57;;;;;;;;;;4964420;28;20411;-84
2022/10/18 12:33:55;;;;;;;8.57;5.35;;;;;;;;;;4918823;28;21138;-83
2022/10/18 12:36:21;;;;;;;8.10;5.72;;;;;;;;;;4934335;28;20043;-82
2022/10/18 12:39:02;;;;;;;9.10;5.03;;;;;;;;;;4934990;28;20709;-83
2022/10/18 12:41:33;;;;;;;9.25;5.90;;;;;;;;;;4954869;28;20696;-83
2022/10/18 12:44:03;;;;;;;9.38;5.75;;;;;;;;;;4935464;28;20039;-83
2022/10/18 12:46:51;;;;;;;8.02;5.43;;;;;;;;;;4920261;28;20044;-83
2022/10/18 12:49:39;;;;;;;9.75;5.45;;;;;;;;;;4903022;29;20043;-84
2022/10/18 12:52:20;;;;;;;9.07;5.45;;;;;;;;;;4936392;28;20039;-83
2022/10/18 12:55:09;;;;;;;11.80;5.95;;;;;;;;;;4929899;28;20734;-83
2022/10/18 12:57:55;;;;;;;9.75;6.00;;;;;;;;;;4935149;28;20043;-82
2022/10/18 13:00:30;;;;;;;9.88;6.40;;;;;;;;;;4925663;28;20039;-88
2022/10/18 13:03:10;;;;;;;9.77;6.10;;;;;;;;;;4958886;28;20035;-84
2022/10/18 13:05:51;;;;;;;8.93;5.85;;;;;;;;;;4935756;28;20051;-86
2022/10/18 13:08:37;;;;;;;9.60;5.82;;;;;;;;;;4943847;28;20114;-87
2022/10/18 13:11:11;;;;;;;9.35;5.85;;;;;;;;;;4933221;28;20067;-88
2022/10/18 13:14:36;;;;;;;9.70;5.93;;;;;;;;;;4933954;28;20054;-87
2022/10/18 13:17:39;;;;;;;13.45;7.05;;;;;;;;;;4903593;29;20072;-88
2022/10/18 13:20:25;;;;;;;9.93;6.30;;;;;;;;;;4901718;29;20036;-87
2022/10/18 13:23:22;;;;;;;10.23;6.10;;;;;;;;;;4926675;28;20051;-87
2022/10/18 13:26:03;;;;;;;10.02;6.07;;;;;;;;;;4943983;28;20031;-87
2022/10/18 13:28:53;;;;;;;9.02;5.95;;;;;;;;;;4933671;28;20411;-86
2022/10/18 13:31:24;;;;;;;9.73;6.85;;;;;;;;;;4933711;28;20060;-87
2022/10/18 13:33:50;;;;;;;10.65;6.78;;;;;;;;;;4935662;28;20035;-86
2022/10/18 13:36:16;;;;;;;10.45;6.25;;;;;;;;;;4931080;28;20126;-86
2022/10/18 13:38:52;;;;;;;9.98;6.72;;;;;;;;;;4940215;28;20042;-87
2022/10/18 13:41:20;;;;;;;10.18;6.35;;;;;;;;;;4954187;28;20039;-86
2022/10/18 13:43:52;;;;;;;11.05;6.88;;;;;;;;;;4925421;28;20062;-87
2022/10/18 13:46:37;;;;;;;10.00;6.65;;;;;;;;;;4937281;28;20450;-87
2022/10/18 13:49:39;;;;;;;9.98;6.20;;;;;;;;;;4899858;28;20039;-87
2022/10/18 13:53:01;;;;;;;10.45;6.90;;;;;;;;;;4946535;28;20050;-87
2022/10/18 13:55:36;;;;;;;10.52;6.63;;;;;;;;;;4847542;29;20045;-87
2022/10/18 13:58:10;;;;;;;10.70;7.03;;;;;;;;;;4871386;29;20088;-86
2022/10/18 14:00:47;;;;;;;10.75;6.43;;;;;;;;;;4908679;28;20495;-88
2022/10/18 14:03:16;;;;;;;11.18;7.00;;;;;;;;;;4970890;28;20042;-88
2022/10/18 14:05:57;;;;;;;11.70;7.18;;;;;;;;;;4945204;28;20582;-85
2022/10/18 14:08:35;;;;;;;10.35;6.85;;;;;;;;;;4930229;28;20045;-86
2022/10/18 14:11:09;;;;;;;13.73;7.85;;;;;;;;;;4929500;28;20041;-87
2022/10/18 14:13:44;;;;;;;10.82;7.20;;;;;;;;;;4969343;28;20396;-87
2022/10/18 14:17:08;;;;;;;11.70;7.13;;;;;;;;;;4939882;28;20151;-86
2022/10/18 14:19:50;;;;;;;11.40;7.45;;;;;;;;;;4873609;29;20081;-89
2022/10/18 14:22:33;;;;;;;9.20;6.68;;;;;;;;;;4889027;29;20047;-86
2022/10/18 14:24:58;;;;;;;10.18;6.38;;;;;;;;;;4915423;28;20070;-86
2022/10/18 14:27:26;;;;;;;12.27;7.32;;;;;;;;;;4925966;28;20510;-86
2022/10/18 14:30:07;;;;;;;11.65;6.80;;;;;;;;;;4955919;28;20058;-86
2022/10/18 14:32:32;;;;;;;10.18;6.57;;;;;;;;;;4940274;28;20520;-86
2022/10/18 14:34:58;;;;;;;9.95;6.47;;;;;;;;;;4913570;28;20079;-86
2022/10/18 14:37:30;;;;;;;8.15;5.75;;;;;;;;;;4955401;28;20555;-89
2022/10/18 14:39:56;;;;;;;9.98;6.57;;;;;;;;;;4946185;28;20039;-87
2022/10/18 14:42:23;;;;;;;11.02;5.88;;;;;;;;;;4922588;28;20942;-86
2022/10/18 14:44:49;;;;;;;11.98;6.70;;;;;;;;;;4936748;28;20460;-87
2022/10/18 14:47:22;;;;;;;11.05;6.40;;;;;;;;;;4929244;28;20063;-88
2022/10/18 14:49:48;;;;;;;10.07;6.40;;;;;;;;;;4960978;28;20586;-87
2022/10/18 14:52:32;;;;;;;10.93;6.90;;;;;;;;;;4962065;28;20414;-87
2022/10/18 14:54:58;;;;;;;11.25;7.60;;;;;;;;;;4955759;28;20124;-87
2022/10/18 14:57:35;;;;;;;12.35;7.57;;;;;;;;;;4936860;28;20122;-87
2022/10/18 15:00:06;;;;;;;11.53;7.17;;;;;;;;;;4929906;28;20039;-88
2022/10/18 15:02:35;;;;;;;12.25;7.13;;;;;;;;;;4927352;28;20043;-87
2022/10/18 15:05:08;;;;;;;10.43;6.60;;;;;;;;;;4938230;28;20526;-87